If you wish to contribute or participate in the discussions about articles you are invited to join SKYbrary as a registered user

 Actions

Liverpool John Lennon Airport

From SKYbrary Wiki

EGGP
Airport
ICAO: EGGP – IATA: LPL
Summary
Name Liverpool John Lennon Airport
Region Europe
Territory United Kingdom GB.gif
Location Speke, Liverpool, England
Serving Liverpool
Elevation 24.384 m
80 ft
80 ft24.384 m
Coordinates 53° 20' 3.81" N, 2° 51' 10.02" W
Runways
Designator Length Width Surface ROPS
9/27 2286 m7,500 ft
46 m150.919 ft
ASP yes/yes


METAR
Observation EGGP 111020Z 15010KT 110V170 9999 SCT033 08/00 Q1027
Station Liverpool Airport
Date/Time 11 April 2019 10:20:00
Wind direction 150°
Wind speed 10 kts
Lowest cloud amount scattered clouds
Temperature 8°C
Dew point 0°C
Humidity 56%
QNH 1027 hPa
Weather condition n/a

Liverpool John Lennon Airport

ICAO: EGGP IATA: LPL

Description

International airport serving Liverpool and environs.

Climatology

Temperate Marine climate/Oceanic climate (Köppen climate classification Cfb). Moderately cool summer and comparatively warm winter with a temperature range of only 14°C57.2 °F
287.15 K
516.87 °R
. Prevailing south-westerly winds from the Atlantic Ocean.

Maps

Terrain

Loading map...

Airport Layout

Loading map...


Accidents & Serious Incidents at or in vicinity of EGGP

None on SKYbrary